This is the latest recevied weather packets stored in our database for station/object IU7URP-13. If no packets are shown the sender has not sent any weather packets the latest 10 day(s).
| Time | Temp. | Humidity | Pressure | Rain* | Wind** | Luminosity | Snow |
|---|---|---|---|---|---|---|---|
| 1777408335 | 16.67° C | 99% | 1019.5 hPa | - | - | - | - |
| 1777407133 | 16.67° C | 99% | 1019.3 hPa | - | - | - | - |
| 1777405932 | 16.67° C | 99% | 1019.4 hPa | - | - | - | - |
| 1777404730 | 17.22° C | 99% | 1019.2 hPa | - | - | - | - |
| 1777403529 | 17.22° C | 99% | 1019 hPa | - | - | - | - |
| 1777402324 | 18.33° C | 99% | 1018.7 hPa | - | - | - | - |
| 1777401122 | 18.33° C | 99% | 1018.3 hPa | - | - | - | - |
| 1777399921 | 19.44° C | 99% | 1017.8 hPa | - | - | - | - |
| 1777398720 | 20.56° C | 99% | 1017.3 hPa | - | - | - | - |
| 1777397518 | 22.22° C | 72% | 1017.2 hPa | - | - | - | - |
| 1777396317 | 23.89° C | 43% | 1016.8 hPa | - | - | - | - |
| 1777395116 | 24.44° C | 35% | 1016.7 hPa | - | - | - | - |
| 1777393915 | 25.56° C | 37% | 1016.7 hPa | - | - | - | - |
| 1777392713 | 26.11° C | 35% | 1016.6 hPa | - | - | - | - |
| 1777391512 | 26.11° C | 35% | 1016.7 hPa | - | - | - | - |
| 1777390310 | 26.11° C | 32% | 1016.7 hPa | - | - | - | - |
| 1777389109 | 27.22° C | 32% | 1016.7 hPa | - | - | - | - |
| 1777387908 | 26.11° C | 33% | 1016.8 hPa | - | - | - | - |
| 1777386706 | 26.11° C | 36% | 1016.8 hPa | - | - | - | - |
| 1777385505 | 25.56° C | 38% | 1017 hPa | - | - | - | - |
| 1777384304 | 26.67° C | 39% | 1017.1 hPa | - | - | - | - |
| 1777383100 | 27.22° C | 30% | 1017.1 hPa | - | - | - | - |
| 1777381899 | 26.67° C | 34% | 1017.3 hPa | - | - | - | - |
| 1777380698 | 25.56° C | 39% | 1017.5 hPa | - | - | - | - |
| 1777379496 | 25.56° C | 33% | 1017.7 hPa | - | - | - | - |
* Rain since midnight (hover to see other rain measurements)
** Current wind speed in m/s (hover to see current wind gust speed)